Time;durP1;ratioP1;P1;durP2;ratioP2;P2;SDS_P1;SDS_P2;PMS_P1;PMS_P2;Temp;Humidity;BMP_temperature;BMP_pressure;BME280_temperature;BME280_humidity;BME280_pressure;Samples;Min_cycle;Max_cycle;Signal;HPM_P1;HPM_P2
2022/07/17 00:00:04;;;;;;;3.35;1.20;;;;;;;23.54;31.26;100385.56;4394768;32;33827;-78
2022/07/17 00:02:34;;;;;;;4.57;1.40;;;;;;;23.60;31.34;100387.25;4382482;32;32937;-78
2022/07/17 00:05:05;;;;;;;3.08;1.20;;;;;;;23.48;31.53;100387.47;4382473;32;34455;-78
2022/07/17 00:07:35;;;;;;;4.55;1.67;;;;;;;23.57;31.39;100390.59;4397063;32;33154;-78
2022/07/17 00:10:03;;;;;;;4.60;1.37;;;;;;;23.23;32.10;100393.03;4400328;32;34253;-78
2022/07/17 00:12:30;;;;;;;3.95;1.27;;;;;;;23.12;32.42;100403.34;4398707;32;33947;-78
2022/07/17 00:14:58;;;;;;;2.40;1.20;;;;;;;23.40;31.89;100392.81;4400801;32;34017;-78
2022/07/17 00:17:28;;;;;;;1.83;0.90;;;;;;;23.40;31.78;100398.41;4400383;32;33470;-78
2022/07/17 00:19:58;;;;;;;3.75;1.20;;;;;;;23.36;31.90;100398.12;4395463;32;34523;-78
2022/07/17 00:22:32;;;;;;;3.80;1.60;;;;;;;23.10;32.46;100400.00;4382531;32;35009;-78
2022/07/17 00:25:01;;;;;;;6.75;1.75;;;;;;;22.89;32.88;100409.41;4382751;32;34562;-78
2022/07/17 00:27:29;;;;;;;4.03;1.25;;;;;;;22.91;32.95;100404.38;4382792;32;33245;-78
2022/07/17 00:29:56;;;;;;;2.55;1.20;;;;;;;22.93;32.92;100403.00;4382724;32;33441;-78
2022/07/17 00:32:30;;;;;;;3.40;1.10;;;;;;;22.88;33.14;100407.72;4382500;32;34408;-78
2022/07/17 00:34:57;;;;;;;3.37;1.25;;;;;;;23.00;32.83;100409.19;4394867;32;33857;-78
2022/07/17 00:37:25;;;;;;;2.92;1.15;;;;;;;22.95;32.78;100411.97;4409027;32;33346;-78
2022/07/17 00:39:54;;;;;;;3.72;1.10;;;;;;;22.91;32.96;100413.63;4382835;32;33601;-78
2022/07/17 00:42:24;;;;;;;3.40;1.00;;;;;;;23.01;32.67;100418.44;4395697;32;34450;-78
2022/07/17 00:44:56;;;;;;;3.22;1.12;;;;;;;23.12;32.40;100414.56;4398769;32;34158;-78
2022/07/17 00:47:24;;;;;;;5.37;1.20;;;;;;;23.02;32.53;100419.28;4399420;32;34039;-78
2022/07/17 00:49:52;;;;;;;5.05;1.30;;;;;;;22.83;32.97;100413.28;4386488;32;34168;-78
2022/07/17 00:52:19;;;;;;;4.05;1.42;;;;;;;22.86;32.89;100413.59;4396145;32;34736;-78
2022/07/17 00:54:47;;;;;;;3.62;1.05;;;;;;;22.68;33.28;100420.50;4397990;32;34576;-78
2022/07/17 00:57:32;;;;;;;2.55;1.15;;;;;;;22.66;33.33;100419.06;4396663;32;32790;-78
2022/07/17 01:00:00;;;;;;;3.10;1.25;;;;;;;22.82;33.05;100423.66;4407344;32;33871;-78
2022/07/17 01:02:29;;;;;;;4.87;1.50;;;;;;;22.73;33.24;100424.44;4409385;32;35135;-78
2022/07/17 01:04:58;;;;;;;4.62;1.40;;;;;;;22.52;33.77;100431.84;4408943;32;34003;-78
2022/07/17 01:07:26;;;;;;;2.40;1.00;;;;;;;22.57;33.62;100429.09;4409364;32;34023;-78
2022/07/17 01:09:54;;;;;;;3.40;1.30;;;;;;;22.69;33.35;100426.94;4396913;32;33787;-78
2022/07/17 01:12:25;;;;;;;2.28;1.10;;;;;;;22.59;33.54;100433.31;4407848;32;35380;-78
2022/07/17 01:14:52;;;;;;;3.92;1.25;;;;;;;22.48;33.75;100434.34;4407760;32;33946;-78
2022/07/17 01:17:23;;;;;;;2.83;1.20;;;;;;;22.51;33.87;100435.75;4407717;32;33192;-78
2022/07/17 01:19:50;;;;;;;2.95;1.37;;;;;;;22.63;33.64;100439.19;4407898;32;33587;-78
2022/07/17 01:22:21;;;;;;;1.75;1.08;;;;;;;22.56;33.76;100439.44;4408195;32;33997;-78
2022/07/17 01:24:51;;;;;;;3.80;1.30;;;;;;;22.55;33.81;100443.34;4421234;32;33757;-78
2022/07/17 01:27:19;;;;;;;2.55;1.15;;;;;;;22.33;34.24;100437.88;4396228;32;31900;-78
2022/07/17 01:29:46;;;;;;;4.03;1.37;;;;;;;22.40;34.03;100439.59;4409525;32;33794;-78
2022/07/17 01:32:14;;;;;;;3.72;1.20;;;;;;;22.42;34.05;100440.19;4397094;32;34585;-79
2022/07/17 01:34:42;;;;;;;2.80;1.30;;;;;;;22.32;34.28;100439.00;4384465;32;32496;-78
2022/07/17 01:37:13;;;;;;;4.68;1.33;;;;;;;22.24;34.46;100452.62;4409551;32;34101;-78
2022/07/17 01:39:52;;;;;;;3.92;1.35;;;;;;;22.26;34.41;100444.81;4397253;32;33714;-78
2022/07/17 01:42:25;;;;;;;3.15;1.15;;;;;;;22.24;34.39;100445.06;4409404;32;34232;-78
2022/07/17 01:44:53;;;;;;;2.20;1.20;;;;;;;22.32;34.34;100444.56;4409422;32;34322;-78
2022/07/17 01:47:24;;;;;;;2.33;0.95;;;;;;;22.07;34.82;100457.53;4409269;32;33257;-78
2022/07/17 01:49:54;;;;;;;2.95;1.27;;;;;;;22.11;34.77;100453.06;4409572;32;33935;-78
2022/07/17 01:52:23;;;;;;;3.15;1.20;;;;;;;21.91;35.12;100451.75;4409432;32;34480;-78
2022/07/17 01:54:52;;;;;;;4.35;1.48;;;;;;;22.01;34.92;100460.28;4409086;32;32491;-78
2022/07/17 01:57:20;;;;;;;3.83;1.40;;;;;;;22.11;34.72;100453.06;4383871;32;33437;-78
2022/07/17 01:59:48;;;;;;;2.62;1.30;;;;;;;21.95;34.93;100457.66;4409260;32;34567;-78
2022/07/17 02:02:16;;;;;;;1.98;1.10;;;;;;;21.91;35.09;100470.47;4396874;32;35191;-78
2022/07/17 02:04:45;;;;;;;2.08;0.98;;;;;;;21.85;35.09;100469.59;4409605;32;34659;-78
2022/07/17 02:07:13;;;;;;;4.87;1.55;;;;;;;21.94;34.95;100467.16;4396803;32;32705;-78
2022/07/17 02:09:40;;;;;;;3.95;1.30;;;;;;;21.67;35.39;100469.97;4408707;32;34474;-78
2022/07/17 02:12:08;;;;;;;2.83;1.10;;;;;;;21.75;35.29;100472.28;4409179;32;34283;-78
2022/07/17 02:14:36;;;;;;;3.45;1.05;;;;;;;21.74;35.20;100476.19;4408841;32;34067;-78
2022/07/17 02:17:04;;;;;;;4.28;1.58;;;;;;;21.60;35.40;100474.91;4409074;32;33491;-78
2022/07/17 02:19:32;;;;;;;2.37;1.10;;;;;;;21.51;35.60;100476.47;4398553;32;33689;-78
2022/07/17 02:21:59;;;;;;;4.82;1.40;;;;;;;21.46;35.79;100479.22;4398166;32;33426;-78
2022/07/17 02:24:30;;;;;;;2.55;1.17;;;;;;;21.52;35.64;100486.53;4424941;32;33407;-78
2022/07/17 02:26:58;;;;;;;4.10;1.10;;;;;;;21.60;35.41;100489.72;4411116;32;33795;-78
2022/07/17 02:29:25;;;;;;;3.12;1.15;;;;;;;21.59;35.39;100492.78;4410613;32;33239;-78
2022/07/17 02:31:53;;;;;;;3.80;1.27;;;;;;;21.41;35.69;100490.34;4410933;32;34817;-78
2022/07/17 02:34:21;;;;;;;2.70;1.17;;;;;;;21.33;35.85;100498.06;4410541;32;34230;-78
2022/07/17 02:36:48;;;;;;;2.25;1.10;;;;;;;21.38;35.85;100500.09;4398666;32;33226;-78
2022/07/17 02:39:16;;;;;;;3.15;1.20;;;;;;;21.27;35.95;100492.69;4410826;32;34661;-78
2022/07/17 02:41:44;;;;;;;4.22;1.25;;;;;;;21.28;35.70;100498.00;4410778;32;34099;-78
2022/07/17 02:44:11;;;;;;;4.10;1.40;;;;;;;21.12;35.98;100504.47;4398034;32;33840;-78
2022/07/17 02:46:39;;;;;;;3.10;1.10;;;;;;;21.19;35.90;100505.13;4410781;32;34137;-78
2022/07/17 02:49:07;;;;;;;3.10;1.20;;;;;;;21.03;36.01;100503.22;4398203;32;33213;-78
2022/07/17 02:51:35;;;;;;;2.28;1.12;;;;;;;21.05;35.91;100507.44;4410800;32;35240;-78
2022/07/17 02:54:02;;;;;;;5.68;1.42;;;;;;;21.04;35.92;100513.28;4410441;32;33852;-78
2022/07/17 02:56:30;;;;;;;4.25;1.37;;;;;;;20.99;35.96;100514.06;4410888;32;33413;-78
2022/07/17 02:58:58;;;;;;;3.37;1.42;;;;;;;20.77;36.30;100515.97;4410577;32;33323;-78
2022/07/17 03:01:25;;;;;;;3.45;1.20;;;;;;;20.81;36.19;100510.69;4398106;32;33939;-78
2022/07/17 03:03:53;;;;;;;2.30;1.15;;;;;;;20.57;36.81;100518.44;4410771;32;33878;-78
2022/07/17 03:06:21;;;;;;;4.22;1.37;;;;;;;20.78;36.39;100514.03;4410744;32;33839;-78
2022/07/17 03:08:50;;;;;;;4.28;1.12;;;;;;;20.50;36.94;100517.78;4410635;32;34026;-78
2022/07/17 03:11:18;;;;;;;4.97;1.40;;;;;;;20.95;36.08;100524.03;4411186;32;34784;-78
2022/07/17 03:13:45;;;;;;;3.87;1.02;;;;;;;20.73;36.61;100522.31;4424249;32;33899;-78
2022/07/17 03:16:13;;;;;;;2.05;1.17;;;;;;;20.76;36.60;100519.03;4424319;32;33087;-78
2022/07/17 03:18:42;;;;;;;3.03;1.40;;;;;;;20.85;36.37;100529.47;4398074;32;32353;-78
2022/07/17 03:21:10;;;;;;;2.53;1.27;;;;;;;20.95;36.03;100528.78;4410920;32;34322;-78
2022/07/17 03:23:41;;;;;;;3.80;1.35;;;;;;;20.57;36.80;100533.25;4410522;32;33985;-78
2022/07/17 03:26:08;;;;;;;2.05;1.20;;;;;;;20.68;36.48;100537.03;4410187;32;31624;-78
2022/07/17 03:28:36;;;;;;;4.87;1.20;;;;;;;20.83;36.17;100539.19;4410124;32;34599;-78
2022/07/17 03:31:04;;;;;;;2.70;1.20;;;;;;;20.75;36.41;100548.03;4424577;32;35314;-78
2022/07/17 03:33:34;;;;;;;2.00;1.00;;;;;;;20.66;36.43;100554.03;4397998;32;34682;-78
2022/07/17 03:36:02;;;;;;;4.25;1.20;;;;;;;20.74;36.46;100557.50;4397984;32;33982;-78
2022/07/17 03:38:32;;;;;;;3.30;1.25;;;;;;;20.61;36.57;100559.53;4410540;32;33918;-78
2022/07/17 03:41:00;;;;;;;3.65;1.37;;;;;;;20.65;36.54;100560.72;4410330;32;34306;-78
2022/07/17 03:43:27;;;;;;;2.40;1.00;;;;;;;20.56;36.74;100556.66;4397688;32;32608;-78
2022/07/17 03:45:55;;;;;;;2.00;1.08;;;;;;;20.53;36.80;100561.88;4424082;32;33968;-78
2022/07/17 03:48:25;;;;;;;3.37;1.17;;;;;;;20.37;37.18;100561.59;4397638;32;32386;-78
2022/07/17 03:50:55;;;;;;;3.65;1.30;;;;;;;20.55;36.90;100563.31;4410261;32;34132;-78
2022/07/17 03:53:26;;;;;;;2.75;1.15;;;;;;;20.47;37.12;100574.06;4410646;32;34030;-78
2022/07/17 03:55:53;;;;;;;2.17;1.05;;;;;;;20.58;37.09;100578.72;4397323;32;31915;-78
2022/07/17 03:58:21;;;;;;;3.03;1.08;;;;;;;20.22;37.88;100568.84;4410277;32;34528;-78
2022/07/17 04:00:49;;;;;;;3.05;1.10;;;;;;;20.38;37.73;100577.25;4410350;32;33928;-78
2022/07/17 04:03:17;;;;;;;5.50;1.15;;;;;;;20.51;37.19;100576.09;4410267;32;34627;-78
2022/07/17 04:05:44;;;;;;;2.95;1.20;;;;;;;20.18;38.38;100581.56;4410219;32;33882;-78
2022/07/17 04:08:15;;;;;;;6.43;1.33;;;;;;;20.38;38.14;100591.19;4397888;32;34656;-78
2022/07/17 04:10:45;;;;;;;4.25;1.23;;;;;;;20.48;37.72;100589.69;4410292;32;34625;-78
2022/07/17 04:13:12;;;;;;;4.70;1.30;;;;;;;20.50;37.71;100587.50;4410822;32;33903;-78
2022/07/17 04:15:52;;;;;;;3.97;1.15;;;;;;;20.67;37.29;100591.12;4410240;32;33364;-78
2022/07/17 04:18:22;;;;;;;3.53;1.37;;;;;;;20.69;37.15;100592.56;4398928;32;32487;-78
2022/07/17 04:20:53;;;;;;;2.92;1.10;;;;;;;20.64;37.27;100595.28;4385284;32;32860;-78
2022/07/17 04:23:27;;;;;;;2.58;1.27;;;;;;;20.63;37.27;100599.16;4397754;32;34064;-78
2022/07/17 04:25:57;;;;;;;2.67;1.08;;;;;;;20.79;36.90;100591.91;4397880;32;34000;-78
2022/07/17 04:28:29;;;;;;;2.70;0.93;;;;;;;20.82;36.98;100596.09;4410287;32;33502;-78
2022/07/17 04:30:56;;;;;;;2.58;1.10;;;;;;;20.95;36.82;100601.34;4410151;32;35192;-78
2022/07/17 04:33:24;;;;;;;2.67;1.10;;;;;;;20.93;36.84;100597.94;4410064;32;33355;-78
2022/07/17 04:35:52;;;;;;;4.07;1.10;;;;;;;20.77;37.08;100604.41;4409841;32;33177;-78
2022/07/17 04:38:22;;;;;;;2.75;1.20;;;;;;;20.65;37.45;100602.56;4410098;32;33654;-78
2022/07/17 04:40:52;;;;;;;2.67;1.10;;;;;;;20.56;38.28;100609.63;4384345;32;33892;-78
2022/07/17 04:43:20;;;;;;;4.85;1.40;;;;;;;20.78;37.79;100614.47;4397779;32;34259;-77
2022/07/17 04:45:52;;;;;;;3.58;1.12;;;;;;;20.88;37.38;100618.25;4409952;32;33285;-78
2022/07/17 04:48:19;;;;;;;2.50;1.10;;;;;;;20.97;37.17;100622.31;4423855;32;34577;-78
2022/07/17 04:50:48;;;;;;;1.98;1.00;;;;;;;20.58;37.31;100623.34;4410205;32;35250;-78
2022/07/17 04:53:18;;;;;;;3.12;1.23;;;;;;;20.52;37.96;100622.41;4410356;32;33889;-78
2022/07/17 04:55:51;;;;;;;3.92;1.00;;;;;;;20.79;37.30;100630.97;4410402;32;33196;-78
2022/07/17 04:58:18;;;;;;;3.67;1.00;;;;;;;20.94;37.34;100628.41;4410062;32;33980;-78
2022/07/17 05:00:46;;;;;;;2.92;0.90;;;;;;;20.96;37.16;100628.13;4397110;32;33715;-78
2022/07/17 05:03:17;;;;;;;3.75;1.00;;;;;;;20.87;37.16;100630.50;4423845;32;34651;-78
2022/07/17 05:05:45;;;;;;;2.45;1.10;;;;;;;20.44;37.77;100628.38;4397254;32;32573;-78
2022/07/17 05:08:12;;;;;;;4.65;0.98;;;;;;;20.87;36.92;100627.72;4397135;32;32427;-78
2022/07/17 05:10:40;;;;;;;2.65;0.93;;;;;;;20.85;37.03;100629.06;4409735;32;34422;-78
2022/07/17 05:13:07;;;;;;;4.18;1.23;;;;;;;20.41;37.50;100626.09;4409770;32;34889;-78
2022/07/17 05:15:38;;;;;;;4.07;1.40;;;;;;;20.53;37.71;100637.19;4409748;32;33339;-78
2022/07/17 05:18:10;;;;;;;2.67;1.10;;;;;;;20.62;37.46;100642.09;4410203;32;33736;-77
2022/07/17 05:20:39;;;;;;;2.92;1.10;;;;;;;20.80;37.02;100643.78;4397184;32;34422;-78
2022/07/17 05:23:07;;;;;;;2.42;1.20;;;;;;;20.68;37.70;100645.81;4409967;32;34592;-78
2022/07/17 05:25:35;;;;;;;2.30;1.10;;;;;;;20.75;37.61;100643.72;4423375;32;32736;-78
2022/07/17 05:28:02;;;;;;;5.15;1.33;;;;;;;20.80;37.54;100643.78;4409665;32;34449;-78
2022/07/17 05:30:31;;;;;;;3.50;1.20;;;;;;;21.04;37.02;100638.88;4409771;32;34544;-78
2022/07/17 05:32:59;;;;;;;2.60;0.98;;;;;;;21.09;37.16;100643.69;4409298;32;33699;-78
2022/07/17 05:35:26;;;;;;;1.70;0.98;;;;;;;21.27;36.87;100647.09;4409007;32;34327;-78
2022/07/17 05:37:56;;;;;;;5.65;1.20;;;;;;;21.07;37.07;100643.09;4409625;32;34686;-78
2022/07/17 05:40:25;;;;;;;4.30;1.10;;;;;;;20.95;37.34;100651.56;4409349;32;34282;-77
2022/07/17 05:42:53;;;;;;;2.62;1.15;;;;;;;21.05;37.62;100644.22;4397176;32;35008;-79
2022/07/17 05:45:21;;;;;;;2.30;1.10;;;;;;;20.81;37.76;100648.25;4422790;32;33362;-78
2022/07/17 05:47:51;;;;;;;2.30;1.08;;;;;;;21.28;37.05;100650.75;4396925;32;33667;-79
2022/07/17 05:50:19;;;;;;;3.08;0.85;;;;;;;20.91;37.47;100651.22;4408898;32;35388;-78
2022/07/17 05:52:46;;;;;;;2.40;1.02;;;;;;;20.86;37.92;100650.28;4396708;32;34558;-78
2022/07/17 05:55:17;;;;;;;5.18;1.00;;;;;;;21.25;37.38;100645.66;4398128;32;31929;-78
2022/07/17 05:57:44;;;;;;;3.53;1.10;;;;;;;21.38;36.84;100650.87;4411170;32;33883;-78
2022/07/17 06:00:13;;;;;;;3.30;1.02;;;;;;;21.21;37.17;100645.31;4385825;32;33052;-78
2022/07/17 06:02:45;;;;;;;2.87;1.02;;;;;;;21.12;37.70;100646.81;4411504;32;34055;-79
2022/07/17 06:05:15;;;;;;;3.12;1.08;;;;;;;21.69;36.83;100650.19;4398995;32;33183;-78
2022/07/17 06:07:50;;;;;;;1.85;0.90;;;;;;;21.72;36.83;100640.44;4400051;32;33738;-79
2022/07/17 06:10:20;;;;;;;2.87;0.93;;;;;;;22.05;36.34;100649.84;4411713;32;34723;-79
2022/07/17 06:12:49;;;;;;;2.12;1.00;;;;;;;21.90;35.48;100648.50;4398576;32;34158;-79
2022/07/17 06:15:16;;;;;;;1.85;0.80;;;;;;;21.47;36.08;100656.84;4411429;32;33296;-78
2022/07/17 06:17:45;;;;;;;2.25;0.90;;;;;;;;;;4411150;32;33894;-79
2022/07/17 06:20:15;;;;;;;1.40;0.85;;;;;;;21.59;36.09;100658.44;4411187;32;35042;-79
2022/07/17 06:22:46;;;;;;;1.15;0.80;;;;;;;21.93;35.37;100658.34;4388289;32;32506;-78
2022/07/17 06:25:17;;;;;;;4.25;1.02;;;;;;;21.99;33.71;100654.50;4400013;32;33178;-79
2022/07/17 06:27:44;;;;;;;1.95;0.80;;;;;;;22.19;34.36;100662.28;4413896;32;34303;-79
2022/07/17 06:30:16;;;;;;;2.03;0.80;;;;;;;21.99;33.97;100657.28;4399006;32;34490;-78
2022/07/17 06:32:44;;;;;;;2.95;1.00;;;;;;;22.26;34.09;100668.53;4411007;32;34755;-79
2022/07/17 06:35:12;;;;;;;6.07;1.02;;;;;;;22.37;33.54;100666.69;4410460;32;33161;-79
2022/07/17 06:37:39;;;;;;;2.08;0.80;;;;;;;22.48;33.43;100666.53;4410336;32;34479;-79
2022/07/17 06:40:07;;;;;;;1.95;0.90;;;;;;;22.16;33.08;100676.78;4398112;32;33490;-78
2022/07/17 06:42:35;;;;;;;2.85;0.93;;;;;;;22.37;31.16;100670.34;4398017;32;33806;-75
2022/07/17 06:45:02;;;;;;;2.58;0.88;;;;;;;22.62;32.11;100672.56;4400274;32;33328;-76
2022/07/17 06:47:30;;;;;;;3.03;1.17;;;;;;;22.65;32.33;100666.44;4382936;32;33358;-76
2022/07/17 06:49:58;;;;;;;4.25;1.10;;;;;;;22.68;34.03;100666.75;4395236;32;32987;-76
2022/07/17 06:52:25;;;;;;;2.92;0.88;;;;;;;22.89;32.29;100680.94;4402395;32;34070;-76
2022/07/17 06:54:57;;;;;;;1.75;0.80;;;;;;;23.10;31.17;100671.59;4407944;32;33215;-76
2022/07/17 06:57:25;;;;;;;2.45;0.93;;;;;;;23.30;31.30;100668.13;4402420;32;33489;-76
2022/07/17 06:59:53;;;;;;;1.67;0.70;;;;;;;23.28;31.09;100665.59;4408049;32;34456;-76
2022/07/17 07:02:20;;;;;;;4.55;0.98;;;;;;;23.23;31.00;100657.16;4407042;32;33610;-76
2022/07/17 07:04:48;;;;;;;4.12;0.82;;;;;;;23.33;31.01;100662.00;4394673;32;33336;-77
2022/07/17 07:07:17;;;;;;;2.12;1.05;;;;;;;23.39;30.45;100668.47;4406246;32;34447;-76
2022/07/17 07:09:45;;;;;;;2.55;0.93;;;;;;;23.36;30.52;100669.84;4407469;32;34025;-75
2022/07/17 07:12:13;;;;;;;4.32;0.68;;;;;;;23.67;29.39;100668.09;4407290;32;32535;-76
2022/07/17 07:14:41;;;;;;;2.85;0.77;;;;;;;24.02;28.46;100663.78;4399609;32;33495;-76
2022/07/17 07:17:09;;;;;;;2.58;0.75;;;;;;;23.29;27.97;100664.47;4394935;32;33897;-76
2022/07/17 07:19:39;;;;;;;2.40;1.00;;;;;;;23.75;28.40;100661.97;4395398;32;34491;-75
2022/07/17 07:22:09;;;;;;;2.78;0.77;;;;;;;23.60;27.75;100670.28;4382913;32;33740;-78
2022/07/17 07:24:38;;;;;;;1.77;0.75;;;;;;;23.75;27.69;100670.38;4394800;32;31723;-78
2022/07/17 07:27:05;;;;;;;8.23;1.67;;;;;;;23.82;27.44;100676.59;4409309;32;33934;-78
2022/07/17 07:29:41;;;;;;;5.72;0.90;;;;;;;24.05;27.57;100663.25;4394615;32;34502;-77
2022/07/17 07:32:08;;;;;;;3.60;0.95;;;;;;;24.03;28.78;100677.53;4382325;32;33816;-78
2022/07/17 07:34:42;;;;;;;1.37;0.70;;;;;;;23.96;26.47;100686.19;4381709;32;33332;-78
2022/07/17 07:37:09;;;;;;;1.12;0.60;;;;;;;23.73;26.21;100672.62;4395803;32;33444;-78
2022/07/17 07:39:37;;;;;;;2.45;0.70;;;;;;;23.68;26.16;100680.16;4406883;32;35072;-77
2022/07/17 07:42:07;;;;;;;1.98;0.80;;;;;;;23.72;26.09;100670.94;4406568;32;34023;-77
2022/07/17 07:44:35;;;;;;;5.03;0.80;;;;;;;23.84;25.28;100670.72;4409234;32;33012;-78
2022/07/17 07:47:06;;;;;;;1.90;0.55;;;;;;;24.07;26.12;100673.03;4409555;32;33619;-78
2022/07/17 07:49:33;;;;;;;3.25;0.70;;;;;;;24.25;24.97;100664.16;4423782;32;34677;-77
2022/07/17 07:52:06;;;;;;;3.10;0.75;;;;;;;24.38;25.25;100662.78;4410511;32;33816;-77
2022/07/17 07:54:35;;;;;;;7.30;2.20;;;;;;;24.75;25.08;100679.41;4410192;32;32932;-77
2022/07/17 07:57:03;;;;;;;1.98;0.80;;;;;;;24.37;25.26;100661.09;4423831;32;33832;-77
2022/07/17 07:59:34;;;;;;;6.95;1.48;;;;;;;24.33;25.22;100665.59;4424055;32;34421;-77
2022/07/17 08:02:02;;;;;;;9.85;1.50;;;;;;;24.71;26.33;100674.63;4410604;32;34660;-78
2022/07/17 08:04:32;;;;;;;4.65;1.00;;;;;;;24.66;25.67;100674.66;4397726;32;33740;-78
2022/07/17 08:07:02;;;;;;;2.50;0.80;;;;;;;24.81;25.59;100683.06;4424015;32;33734;-77
2022/07/17 08:09:32;;;;;;;2.12;0.75;;;;;;;24.40;26.01;100665.31;4410504;32;35086;-78
2022/07/17 08:12:00;;;;;;;5.72;0.85;;;;;;;24.72;25.11;100684.75;4410242;32;34471;-78
2022/07/17 08:14:47;;;;;;;2.53;0.70;;;;;;;24.51;25.51;100673.50;4398787;32;32447;-79
2022/07/17 08:17:15;;;;;;;2.70;0.80;;;;;;;24.97;25.94;100675.53;4410049;32;33759;-78
2022/07/17 08:19:46;;;;;;;3.28;1.00;;;;;;;25.18;24.95;100678.06;4410128;32;34352;-78
2022/07/17 08:22:14;;;;;;;2.45;0.90;;;;;;;25.33;24.85;100680.03;4410089;32;33989;-78
2022/07/17 08:24:44;;;;;;;2.12;0.60;;;;;;;25.34;25.00;100683.69;4397304;32;32728;-77
2022/07/17 08:27:12;;;;;;;3.30;1.10;;;;;;;25.19;24.46;100684.53;4397466;32;33154;-78
2022/07/17 08:29:39;;;;;;;1.62;0.70;;;;;;;25.50;24.39;100697.41;4409966;32;34373;-77
2022/07/17 08:32:27;;;;;;;2.97;0.73;;;;;;;25.54;23.56;100680.81;4399618;32;32589;-77
2022/07/17 08:34:56;;;;;;;5.00;0.90;;;;;;;25.38;24.04;100681.94;4397529;32;31549;-77
2022/07/17 08:37:24;;;;;;;1.98;0.80;;;;;;;25.52;24.62;100689.53;4409086;32;33990;-77
2022/07/17 08:39:52;;;;;;;2.60;0.98;;;;;;;25.50;23.64;100679.69;4396945;32;34086;-76
2022/07/17 08:42:20;;;;;;;5.03;1.00;;;;;;;25.76;24.18;100680.50;4396993;32;34134;-77
2022/07/17 08:44:47;;;;;;;12.77;2.15;;;;;;;25.61;23.72;100686.97;4423273;32;33739;-77
2022/07/17 08:47:15;;;;;;;1.90;0.80;;;;;;;26.03;23.90;100686.59;4409847;32;34038;-77
2022/07/17 08:49:45;;;;;;;1.83;0.57;;;;;;;25.66;23.53;100686.16;4409564;32;33547;-78
2022/07/17 08:52:13;;;;;;;3.22;0.90;;;;;;;25.89;23.43;100669.50;4396873;32;32985;-77
2022/07/17 08:54:41;;;;;;;3.97;0.77;;;;;;;26.33;23.88;100671.56;4410068;32;33343;-78
2022/07/17 08:57:09;;;;;;;9.45;1.15;;;;;;;26.46;23.65;100679.38;4396215;32;33826;-76
2022/07/17 08:59:36;;;;;;;1.95;0.70;;;;;;;26.62;23.14;100682.13;4393479;32;34214;-77
2022/07/17 09:02:08;;;;;;;3.33;0.90;;;;;;;26.63;23.18;100675.34;4382002;32;32513;-77
2022/07/17 09:04:35;;;;;;;1.20;0.60;;;;;;;27.00;22.61;100667.19;4396062;32;33512;-77
2022/07/17 09:07:05;;;;;;;3.62;0.90;;;;;;;26.84;22.84;100674.87;4409429;32;33737;-77
2022/07/17 09:09:35;;;;;;;2.62;0.93;;;;;;;26.66;23.57;100669.94;4410933;32;35349;-78
2022/07/17 09:12:10;;;;;;;3.28;0.98;;;;;;;27.12;23.91;100662.03;4398319;32;34711;-78
2022/07/17 09:14:40;;;;;;;2.62;0.80;;;;;;;27.36;23.45;100664.03;4385172;32;33146;-78
2022/07/17 09:17:09;;;;;;;2.20;0.65;;;;;;;27.37;21.96;100677.84;4396180;32;32346;-78
2022/07/17 09:19:40;;;;;;;3.25;0.80;;;;;;;27.52;22.03;100668.38;4411573;32;34644;-78
2022/07/17 09:22:15;;;;;;;3.20;1.00;;;;;;;27.09;21.68;100667.41;4393725;32;33834;-78
2022/07/17 09:25:10;;;;;;;2.28;0.80;;;;;;;27.35;22.29;100649.09;4407093;32;33423;-78
2022/07/17 09:27:37;;;;;;;3.37;0.90;;;;;;;27.41;21.82;100663.97;4391193;32;33805;-78
2022/07/17 09:30:07;;;;;;;3.22;1.00;;;;;;;27.09;22.02;100659.78;4401471;32;34465;-77
2022/07/17 09:32:37;;;;;;;2.17;0.90;;;;;;;27.62;21.22;100653.38;4399340;32;34013;-77
2022/07/17 09:35:10;;;;;;;2.28;0.90;;;;;;;27.87;20.76;100658.72;4409625;32;33594;-78
2022/07/17 09:37:38;;;;;;;2.80;0.88;;;;;;;27.84;20.35;100662.16;4398764;32;32217;-78
2022/07/17 09:43:03;;;;;;;5.03;0.90;;;;;;;27.92;20.22;100646.53;4376217;32;33529;-78
2022/07/17 09:45:32;;;;;;;2.70;1.08;;;;;;;28.37;20.67;100642.28;4398497;32;33348;-78
2022/07/17 09:48:01;;;;;;;1.85;0.65;;;;;;;28.26;20.56;100658.50;4387116;32;33862;-78
2022/07/17 09:50:29;;;;;;;4.60;1.02;;;;;;;28.24;20.18;100638.22;4381192;32;33871;-78
2022/07/17 09:52:57;;;;;;;3.92;0.90;;;;;;;27.99;20.87;100644.16;4409467;32;34807;-76
2022/07/17 09:55:30;;;;;;;2.95;0.93;;;;;;;28.36;20.37;100641.44;4409226;32;32957;-76
2022/07/17 09:58:20;;;;;;;2.58;0.62;;;;;;;27.99;19.96;100645.00;4386576;32;33385;-77
2022/07/17 10:00:47;;;;;;;1.98;0.80;;;;;;;28.25;20.63;100639.91;4398973;32;35258;-76
2022/07/17 10:03:19;;;;;;;3.67;1.08;;;;;;;28.06;20.32;100659.59;4386766;32;34823;-76
2022/07/17 10:05:47;;;;;;;3.58;0.95;;;;;;;28.87;19.94;100643.50;4385843;32;33798;-76
2022/07/17 10:08:18;;;;;;;2.05;0.88;;;;;;;28.78;19.73;100639.66;4410683;32;33215;-76
2022/07/17 10:10:46;;;;;;;2.92;0.82;;;;;;;28.83;19.96;100653.72;4399573;32;35146;-75
2022/07/17 10:13:15;;;;;;;2.85;0.80;;;;;;;29.31;19.49;100633.66;4373852;32;34103;-77
2022/07/17 10:15:43;;;;;;;2.33;0.80;;;;;;;29.04;19.73;100649.41;4395268;32;34154;-77
2022/07/17 10:18:11;;;;;;;3.20;1.00;;;;;;;29.15;19.65;100642.44;4403761;32;33619;-76
2022/07/17 10:20:39;;;;;;;2.40;0.98;;;;;;;29.47;19.39;100649.22;4408154;32;34953;-76
2022/07/17 10:23:43;;;;;;;2.33;0.80;;;;;;;29.59;18.94;100635.41;4395331;32;32659;-77
2022/07/17 10:26:14;;;;;;;4.37;0.93;;;;;;;29.99;18.72;100632.88;4391387;32;32988;-77
2022/07/17 10:28:48;;;;;;;2.42;1.00;;;;;;;29.95;18.75;100632.69;4391291;32;32224;-78
2022/07/17 10:31:24;;;;;;;8.50;1.60;;;;;;;29.28;18.48;100645.59;4395058;32;33245;-75
2022/07/17 10:34:01;;;;;;;7.82;1.50;;;;;;;29.88;19.14;100642.78;4400738;32;34527;-76
2022/07/17 10:36:37;;;;;;;3.37;1.10;;;;;;;29.45;19.05;100628.91;4386032;32;33309;-78
2022/07/17 10:39:14;;;;;;;6.95;1.25;;;;;;;29.93;19.17;100636.97;4372021;32;33049;-78
2022/07/17 10:41:55;;;;;;;4.68;0.85;;;;;;;30.39;17.87;100634.03;4386214;32;32824;-79
2022/07/17 10:44:31;;;;;;;4.40;1.02;;;;;;;30.30;17.81;100633.94;4383979;32;33905;-78
2022/07/17 10:46:59;;;;;;;2.92;1.00;;;;;;;30.61;18.21;100617.06;4408120;32;33445;-78
2022/07/17 10:49:27;;;;;;;4.40;1.40;;;;;;;31.01;18.26;100626.56;4388820;32;32262;-78
2022/07/17 10:51:56;;;;;;;2.72;0.90;;;;;;;30.98;17.90;100624.38;4410752;32;34473;-78
2022/07/17 10:54:33;;;;;;;3.35;0.82;;;;;;;31.26;17.07;100616.56;4399546;32;34356;-78
2022/07/17 10:57:05;;;;;;;3.28;0.80;;;;;;;30.89;16.68;100617.81;4399632;32;33280;-78
2022/07/17 10:59:35;;;;;;;5.30;1.30;;;;;;;31.20;16.80;100615.03;4384586;32;32441;-78
2022/07/17 11:02:07;;;;;;;4.07;1.12;;;;;;;31.72;15.94;100607.66;4390568;32;34543;-78
2022/07/17 11:04:37;;;;;;;6.20;1.52;;;;;;;31.29;16.02;100598.06;4399741;32;33706;-78
2022/07/17 11:07:15;;;;;;;2.17;0.80;;;;;;;31.38;15.71;100613.97;4387640;32;32959;-78
2022/07/17 11:09:47;;;;;;;3.40;1.05;;;;;;;31.37;15.09;100611.44;4401658;32;34802;-78
2022/07/17 11:12:16;;;;;;;5.00;1.20;;;;;;;31.52;16.03;100608.19;4398865;32;34460;-79
2022/07/17 11:14:46;;;;;;;4.05;0.95;;;;;;;31.45;16.89;100591.62;4388583;32;33876;-78
2022/07/17 11:17:13;;;;;;;4.05;0.98;;;;;;;31.48;15.71;100601.50;4401464;32;33549;-78
2022/07/17 11:19:45;;;;;;;1.48;0.70;;;;;;;31.99;16.24;100594.34;4405572;32;32279;-78
2022/07/17 11:22:15;;;;;;;2.60;0.95;;;;;;;31.89;15.96;100583.28;4388411;32;33890;-78
2022/07/17 11:24:47;;;;;;;4.25;0.95;;;;;;;32.02;15.61;100594.53;4388692;32;34789;-78
2022/07/17 11:27:20;;;;;;;3.45;0.70;;;;;;;31.23;16.43;100596.50;4399377;32;33514;-78
2022/07/17 11:29:48;;;;;;;7.87;0.98;;;;;;;31.02;16.18;100588.53;4400911;32;34373;-78
2022/07/17 11:32:16;;;;;;;2.25;0.80;;;;;;;31.66;16.49;100574.88;4377353;32;34251;-78
2022/07/17 11:34:44;;;;;;;1.75;0.75;;;;;;;31.66;15.40;100583.38;4402336;32;34098;-77
2022/07/17 11:37:14;;;;;;;8.75;6.57;;;;;;;31.93;14.03;100578.63;4400512;32;33451;-79
2022/07/17 11:39:43;;;;;;;3.83;1.42;;;;;;;32.04;14.83;100580.81;4400523;32;33794;-79